sensor_id;sensor_type;location;lat;lon;timestamp;P1;durP1;ratioP1;P2;durP2;ratioP2
76995;SDS011;65929;49.062;10.338;2023-04-07T00:00:53;10.98;;;5.97;;
76995;SDS011;65929;49.062;10.338;2023-04-07T00:01:54;10.45;;;6.00;;
76995;SDS011;65929;49.062;10.338;2023-04-07T00:02:55;12.23;;;6.32;;
76995;SDS011;65929;49.062;10.338;2023-04-07T00:03:56;11.32;;;6.72;;
76995;SDS011;65929;49.062;10.338;2023-04-07T00:04:57;9.73;;;5.90;;
76995;SDS011;65929;49.062;10.338;2023-04-07T00:05:58;9.75;;;5.90;;
76995;SDS011;65929;49.062;10.338;2023-04-07T00:07:00;9.13;;;5.30;;
76995;SDS011;65929;49.062;10.338;2023-04-07T00:08:01;9.57;;;5.68;;
76995;SDS011;65929;49.062;10.338;2023-04-07T00:09:02;8.60;;;5.28;;
76995;SDS011;65929;49.062;10.338;2023-04-07T00:10:03;8.05;;;5.35;;
76995;SDS011;65929;49.062;10.338;2023-04-07T00:11:04;10.20;;;5.90;;
76995;SDS011;65929;49.062;10.338;2023-04-07T00:12:07;11.10;;;5.85;;
76995;SDS011;65929;49.062;10.338;2023-04-07T00:13:08;8.20;;;5.47;;
76995;SDS011;65929;49.062;10.338;2023-04-07T00:14:09;11.30;;;5.63;;
76995;SDS011;65929;49.062;10.338;2023-04-07T00:15:10;9.95;;;6.13;;
76995;SDS011;65929;49.062;10.338;2023-04-07T00:16:11;10.65;;;5.60;;
76995;SDS011;65929;49.062;10.338;2023-04-07T00:17:12;12.77;;;6.50;;
76995;SDS011;65929;49.062;10.338;2023-04-07T00:18:13;10.02;;;6.10;;
76995;SDS011;65929;49.062;10.338;2023-04-07T00:19:13;10.82;;;5.90;;
76995;SDS011;65929;49.062;10.338;2023-04-07T00:20:14;10.48;;;5.88;;
76995;SDS011;65929;49.062;10.338;2023-04-07T00:21:16;9.55;;;6.07;;
76995;SDS011;65929;49.062;10.338;2023-04-07T00:22:17;8.68;;;5.53;;
76995;SDS011;65929;49.062;10.338;2023-04-07T00:23:17;8.65;;;5.43;;
76995;SDS011;65929;49.062;10.338;2023-04-07T00:24:19;8.98;;;6.18;;
76995;SDS011;65929;49.062;10.338;2023-04-07T00:25:20;8.52;;;5.80;;
76995;SDS011;65929;49.062;10.338;2023-04-07T00:26:21;11.52;;;5.90;;
76995;SDS011;65929;49.062;10.338;2023-04-07T00:27:23;10.25;;;6.35;;
76995;SDS011;65929;49.062;10.338;2023-04-07T00:28:24;9.25;;;5.28;;
76995;SDS011;65929;49.062;10.338;2023-04-07T00:29:25;10.27;;;6.15;;
76995;SDS011;65929;49.062;10.338;2023-04-07T00:30:26;10.15;;;5.82;;
76995;SDS011;65929;49.062;10.338;2023-04-07T00:31:27;9.10;;;5.55;;
76995;SDS011;65929;49.062;10.338;2023-04-07T00:32:28;9.90;;;5.63;;
76995;SDS011;65929;49.062;10.338;2023-04-07T00:33:29;11.00;;;5.78;;
76995;SDS011;65929;49.062;10.338;2023-04-07T00:34:30;11.43;;;5.68;;
76995;SDS011;65929;49.062;10.338;2023-04-07T00:35:31;10.23;;;6.07;;
76995;SDS011;65929;49.062;10.338;2023-04-07T00:36:32;9.63;;;5.97;;
76995;SDS011;65929;49.062;10.338;2023-04-07T00:37:33;11.40;;;6.90;;
76995;SDS011;65929;49.062;10.338;2023-04-07T00:38:34;10.20;;;6.45;;
76995;SDS011;65929;49.062;10.338;2023-04-07T00:39:35;10.32;;;6.47;;
76995;SDS011;65929;49.062;10.338;2023-04-07T00:40:36;10.73;;;6.53;;
76995;SDS011;65929;49.062;10.338;2023-04-07T00:41:37;12.88;;;6.75;;
76995;SDS011;65929;49.062;10.338;2023-04-07T00:42:39;8.80;;;5.25;;
76995;SDS011;65929;49.062;10.338;2023-04-07T00:43:40;8.95;;;5.72;;
76995;SDS011;65929;49.062;10.338;2023-04-07T00:44:41;13.05;;;5.90;;
76995;SDS011;65929;49.062;10.338;2023-04-07T00:45:42;11.93;;;6.13;;
76995;SDS011;65929;49.062;10.338;2023-04-07T00:46:43;11.05;;;5.75;;
76995;SDS011;65929;49.062;10.338;2023-04-07T00:47:44;9.80;;;5.80;;
76995;SDS011;65929;49.062;10.338;2023-04-07T00:48:45;10.85;;;6.18;;
76995;SDS011;65929;49.062;10.338;2023-04-07T00:49:46;10.00;;;6.32;;
76995;SDS011;65929;49.062;10.338;2023-04-07T00:50:47;12.27;;;6.65;;
76995;SDS011;65929;49.062;10.338;2023-04-07T00:51:48;11.05;;;6.03;;
76995;SDS011;65929;49.062;10.338;2023-04-07T00:52:49;10.68;;;5.97;;
76995;SDS011;65929;49.062;10.338;2023-04-07T00:53:50;10.65;;;6.00;;
76995;SDS011;65929;49.062;10.338;2023-04-07T00:54:52;8.77;;;5.03;;
76995;SDS011;65929;49.062;10.338;2023-04-07T00:55:53;10.00;;;5.82;;
76995;SDS011;65929;49.062;10.338;2023-04-07T00:56:54;9.48;;;5.70;;
76995;SDS011;65929;49.062;10.338;2023-04-07T00:57:57;11.93;;;6.13;;
76995;SDS011;65929;49.062;10.338;2023-04-07T00:58:58;10.10;;;5.38;;
76995;SDS011;65929;49.062;10.338;2023-04-07T00:59:59;11.38;;;5.95;;
76995;SDS011;65929;49.062;10.338;2023-04-07T01:01:02;10.02;;;5.82;;
76995;SDS011;65929;49.062;10.338;2023-04-07T01:02:09;5.88;;;4.28;;
76995;SDS011;65929;49.062;10.338;2023-04-07T01:03:17;10.65;;;4.82;;
76995;SDS011;65929;49.062;10.338;2023-04-07T01:04:25;10.95;;;5.03;;
76995;SDS011;65929;49.062;10.338;2023-04-07T01:05:33;8.45;;;4.18;;
76995;SDS011;65929;49.062;10.338;2023-04-07T01:06:39;10.23;;;5.10;;
76995;SDS011;65929;49.062;10.338;2023-04-07T01:07:51;6.70;;;4.22;;
76995;SDS011;65929;49.062;10.338;2023-04-07T01:09:00;8.20;;;3.95;;
76995;SDS011;65929;49.062;10.338;2023-04-07T01:10:04;8.18;;;4.05;;
76995;SDS011;65929;49.062;10.338;2023-04-07T01:11:10;8.45;;;5.03;;
76995;SDS011;65929;49.062;10.338;2023-04-07T01:12:20;8.35;;;4.13;;
76995;SDS011;65929;49.062;10.338;2023-04-07T01:13:31;9.77;;;4.40;;
76995;SDS011;65929;49.062;10.338;2023-04-07T01:14:38;7.35;;;3.80;;
76995;SDS011;65929;49.062;10.338;2023-04-07T01:15:45;7.85;;;4.13;;
76995;SDS011;65929;49.062;10.338;2023-04-07T01:16:51;8.77;;;4.10;;
76995;SDS011;65929;49.062;10.338;2023-04-07T01:17:58;7.30;;;3.53;;
76995;SDS011;65929;49.062;10.338;2023-04-07T01:19:08;7.63;;;4.35;;
76995;SDS011;65929;49.062;10.338;2023-04-07T01:20:16;5.78;;;3.67;;
76995;SDS011;65929;49.062;10.338;2023-04-07T01:21:21;5.95;;;3.85;;
76995;SDS011;65929;49.062;10.338;2023-04-07T01:22:28;6.47;;;4.30;;
76995;SDS011;65929;49.062;10.338;2023-04-07T01:23:40;7.28;;;4.35;;
76995;SDS011;65929;49.062;10.338;2023-04-07T01:24:57;6.10;;;4.00;;
76995;SDS011;65929;49.062;10.338;2023-04-07T01:26:18;6.70;;;3.72;;
76995;SDS011;65929;49.062;10.338;2023-04-07T01:27:32;7.78;;;3.92;;
76995;SDS011;65929;49.062;10.338;2023-04-07T01:28:43;7.03;;;4.00;;
76995;SDS011;65929;49.062;10.338;2023-04-07T01:30:02;4.47;;;3.20;;
76995;SDS011;65929;49.062;10.338;2023-04-07T01:31:06;5.25;;;3.20;;
76995;SDS011;65929;49.062;10.338;2023-04-07T01:32:09;4.32;;;2.55;;
76995;SDS011;65929;49.062;10.338;2023-04-07T01:33:11;4.95;;;3.40;;
76995;SDS011;65929;49.062;10.338;2023-04-07T01:34:15;4.95;;;3.03;;
76995;SDS011;65929;49.062;10.338;2023-04-07T01:35:16;6.25;;;3.42;;
76995;SDS011;65929;49.062;10.338;2023-04-07T01:36:18;5.03;;;2.80;;
76995;SDS011;65929;49.062;10.338;2023-04-07T01:37:20;4.75;;;2.85;;
76995;SDS011;65929;49.062;10.338;2023-04-07T01:38:22;5.03;;;3.35;;
76995;SDS011;65929;49.062;10.338;2023-04-07T01:39:25;4.97;;;2.83;;
76995;SDS011;65929;49.062;10.338;2023-04-07T01:40:27;4.53;;;2.80;;
76995;SDS011;65929;49.062;10.338;2023-04-07T01:41:28;5.45;;;2.97;;
76995;SDS011;65929;49.062;10.338;2023-04-07T01:42:30;5.40;;;3.03;;
76995;SDS011;65929;49.062;10.338;2023-04-07T01:43:33;5.63;;;2.90;;
76995;SDS011;65929;49.062;10.338;2023-04-07T01:44:36;5.82;;;2.95;;
76995;SDS011;65929;49.062;10.338;2023-04-07T01:45:39;5.97;;;2.78;;
76995;SDS011;65929;49.062;10.338;2023-04-07T01:46:42;4.38;;;2.80;;
76995;SDS011;65929;49.062;10.338;2023-04-07T01:47:43;5.50;;;3.00;;
76995;SDS011;65929;49.062;10.338;2023-04-07T01:48:44;4.78;;;3.00;;
76995;SDS011;65929;49.062;10.338;2023-04-07T01:49:47;5.25;;;3.20;;
76995;SDS011;65929;49.062;10.338;2023-04-07T01:50:49;4.32;;;2.80;;
76995;SDS011;65929;49.062;10.338;2023-04-07T01:51:51;5.10;;;2.67;;
76995;SDS011;65929;49.062;10.338;2023-04-07T01:52:52;5.47;;;3.08;;
76995;SDS011;65929;49.062;10.338;2023-04-07T01:53:54;6.38;;;2.78;;
76995;SDS011;65929;49.062;10.338;2023-04-07T01:54:55;6.55;;;3.15;;
76995;SDS011;65929;49.062;10.338;2023-04-07T01:55:56;4.30;;;2.92;;
76995;SDS011;65929;49.062;10.338;2023-04-07T01:56:57;5.03;;;2.70;;
76995;SDS011;65929;49.062;10.338;2023-04-07T01:58:02;4.38;;;2.80;;
76995;SDS011;65929;49.062;10.338;2023-04-07T01:59:04;5.15;;;3.20;;
76995;SDS011;65929;49.062;10.338;2023-04-07T02:00:05;5.53;;;3.30;;
76995;SDS011;65929;49.062;10.338;2023-04-07T02:01:08;6.63;;;2.95;;
76995;SDS011;65929;49.062;10.338;2023-04-07T02:02:09;6.07;;;3.35;;
76995;SDS011;65929;49.062;10.338;2023-04-07T02:03:12;6.22;;;3.10;;
76995;SDS011;65929;49.062;10.338;2023-04-07T02:04:20;5.35;;;3.20;;
76995;SDS011;65929;49.062;10.338;2023-04-07T02:05:27;6.90;;;3.17;;
76995;SDS011;65929;49.062;10.338;2023-04-07T02:06:31;5.30;;;2.80;;
76995;SDS011;65929;49.062;10.338;2023-04-07T02:08:54;6.05;;;2.88;;
76995;SDS011;65929;49.062;10.338;2023-04-07T02:09:59;5.07;;;2.97;;
76995;SDS011;65929;49.062;10.338;2023-04-07T02:11:04;5.60;;;3.03;;
76995;SDS011;65929;49.062;10.338;2023-04-07T02:12:07;5.93;;;3.13;;
76995;SDS011;65929;49.062;10.338;2023-04-07T02:13:12;6.55;;;2.95;;
76995;SDS011;65929;49.062;10.338;2023-04-07T02:14:16;5.35;;;2.88;;
76995;SDS011;65929;49.062;10.338;2023-04-07T02:15:19;5.60;;;3.22;;
76995;SDS011;65929;49.062;10.338;2023-04-07T02:16:24;5.65;;;3.58;;
76995;SDS011;65929;49.062;10.338;2023-04-07T02:17:26;7.00;;;3.10;;
76995;SDS011;65929;49.062;10.338;2023-04-07T02:18:28;7.20;;;4.00;;
76995;SDS011;65929;49.062;10.338;2023-04-07T02:19:31;5.97;;;3.55;;
76995;SDS011;65929;49.062;10.338;2023-04-07T02:20:33;7.28;;;3.70;;
76995;SDS011;65929;49.062;10.338;2023-04-07T02:21:36;6.78;;;3.70;;
76995;SDS011;65929;49.062;10.338;2023-04-07T02:22:38;5.75;;;3.33;;
76995;SDS011;65929;49.062;10.338;2023-04-07T02:23:40;7.47;;;3.50;;
76995;SDS011;65929;49.062;10.338;2023-04-07T02:24:41;8.55;;;3.50;;
76995;SDS011;65929;49.062;10.338;2023-04-07T02:25:42;7.38;;;3.75;;
76995;SDS011;65929;49.062;10.338;2023-04-07T02:26:43;6.72;;;3.60;;
76995;SDS011;65929;49.062;10.338;2023-04-07T02:27:45;7.40;;;3.60;;
76995;SDS011;65929;49.062;10.338;2023-04-07T02:28:46;7.15;;;3.85;;
76995;SDS011;65929;49.062;10.338;2023-04-07T02:29:46;6.63;;;3.58;;
76995;SDS011;65929;49.062;10.338;2023-04-07T02:30:47;6.32;;;3.33;;
76995;SDS011;65929;49.062;10.338;2023-04-07T02:31:50;6.22;;;3.63;;
76995;SDS011;65929;49.062;10.338;2023-04-07T02:32:51;6.80;;;3.65;;
76995;SDS011;65929;49.062;10.338;2023-04-07T02:33:52;6.13;;;3.17;;
76995;SDS011;65929;49.062;10.338;2023-04-07T02:34:53;6.95;;;3.25;;
76995;SDS011;65929;49.062;10.338;2023-04-07T02:35:54;5.30;;;3.25;;
76995;SDS011;65929;49.062;10.338;2023-04-07T02:36:55;7.65;;;3.63;;
76995;SDS011;65929;49.062;10.338;2023-04-07T02:37:56;7.30;;;3.72;;
76995;SDS011;65929;49.062;10.338;2023-04-07T02:38:57;6.82;;;3.47;;
76995;SDS011;65929;49.062;10.338;2023-04-07T02:39:58;6.97;;;3.90;;
76995;SDS011;65929;49.062;10.338;2023-04-07T02:40:59;5.20;;;3.30;;
76995;SDS011;65929;49.062;10.338;2023-04-07T02:42:00;9.05;;;3.83;;
76995;SDS011;65929;49.062;10.338;2023-04-07T02:43:01;6.47;;;3.75;;
76995;SDS011;65929;49.062;10.338;2023-04-07T02:44:01;5.93;;;3.72;;
76995;SDS011;65929;49.062;10.338;2023-04-07T02:45:03;7.57;;;3.90;;
76995;SDS011;65929;49.062;10.338;2023-04-07T02:46:05;8.13;;;3.70;;
76995;SDS011;65929;49.062;10.338;2023-04-07T02:47:07;8.70;;;4.05;;
76995;SDS011;65929;49.062;10.338;2023-04-07T02:48:08;7.72;;;3.75;;
76995;SDS011;65929;49.062;10.338;2023-04-07T02:49:09;6.22;;;4.13;;
76995;SDS011;65929;49.062;10.338;2023-04-07T02:50:10;7.75;;;4.05;;
76995;SDS011;65929;49.062;10.338;2023-04-07T02:51:11;7.70;;;3.72;;
76995;SDS011;65929;49.062;10.338;2023-04-07T02:52:12;7.22;;;3.92;;
76995;SDS011;65929;49.062;10.338;2023-04-07T02:53:13;6.85;;;3.63;;
76995;SDS011;65929;49.062;10.338;2023-04-07T02:54:14;7.30;;;3.75;;
76995;SDS011;65929;49.062;10.338;2023-04-07T02:55:15;9.45;;;4.20;;
76995;SDS011;65929;49.062;10.338;2023-04-07T02:56:17;6.22;;;3.88;;
76995;SDS011;65929;49.062;10.338;2023-04-07T02:57:20;7.40;;;4.05;;
76995;SDS011;65929;49.062;10.338;2023-04-07T02:58:21;7.63;;;4.40;;
76995;SDS011;65929;49.062;10.338;2023-04-07T02:59:22;8.90;;;3.78;;
76995;SDS011;65929;49.062;10.338;2023-04-07T03:00:23;6.07;;;3.53;;
76995;SDS011;65929;49.062;10.338;2023-04-07T03:01:25;9.27;;;3.78;;
76995;SDS011;65929;49.062;10.338;2023-04-07T03:02:28;8.88;;;4.43;;
76995;SDS011;65929;49.062;10.338;2023-04-07T03:03:29;9.07;;;4.22;;
76995;SDS011;65929;49.062;10.338;2023-04-07T03:04:30;7.18;;;4.43;;
76995;SDS011;65929;49.062;10.338;2023-04-07T03:05:31;7.40;;;3.97;;
76995;SDS011;65929;49.062;10.338;2023-04-07T03:06:32;6.53;;;3.75;;
76995;SDS011;65929;49.062;10.338;2023-04-07T03:07:33;9.18;;;4.43;;
76995;SDS011;65929;49.062;10.338;2023-04-07T03:08:34;9.15;;;4.35;;
76995;SDS011;65929;49.062;10.338;2023-04-07T03:09:35;9.88;;;4.40;;
76995;SDS011;65929;49.062;10.338;2023-04-07T03:10:36;8.73;;;3.88;;
76995;SDS011;65929;49.062;10.338;2023-04-07T03:11:37;9.05;;;4.75;;
76995;SDS011;65929;49.062;10.338;2023-04-07T03:12:38;7.88;;;4.82;;
76995;SDS011;65929;49.062;10.338;2023-04-07T03:13:39;9.40;;;4.53;;
76995;SDS011;65929;49.062;10.338;2023-04-07T03:14:40;7.50;;;4.03;;
76995;SDS011;65929;49.062;10.338;2023-04-07T03:15:41;9.43;;;4.78;;
76995;SDS011;65929;49.062;10.338;2023-04-07T03:16:43;9.40;;;4.38;;
76995;SDS011;65929;49.062;10.338;2023-04-07T03:17:45;9.13;;;4.40;;
76995;SDS011;65929;49.062;10.338;2023-04-07T03:18:46;7.50;;;4.45;;
76995;SDS011;65929;49.062;10.338;2023-04-07T03:19:47;10.27;;;4.72;;
76995;SDS011;65929;49.062;10.338;2023-04-07T03:20:48;8.10;;;4.13;;
76995;SDS011;65929;49.062;10.338;2023-04-07T03:21:49;12.32;;;4.80;;
76995;SDS011;65929;49.062;10.338;2023-04-07T03:22:50;9.43;;;4.35;;
76995;SDS011;65929;49.062;10.338;2023-04-07T03:23:51;10.07;;;4.20;;
76995;SDS011;65929;49.062;10.338;2023-04-07T03:24:52;7.75;;;4.78;;
76995;SDS011;65929;49.062;10.338;2023-04-07T03:25:53;8.13;;;4.25;;
76995;SDS011;65929;49.062;10.338;2023-04-07T03:26:54;8.63;;;4.43;;
76995;SDS011;65929;49.062;10.338;2023-04-07T03:27:55;9.85;;;5.05;;
76995;SDS011;65929;49.062;10.338;2023-04-07T03:28:56;9.05;;;5.20;;
76995;SDS011;65929;49.062;10.338;2023-04-07T03:29:57;11.38;;;4.50;;
76995;SDS011;65929;49.062;10.338;2023-04-07T03:30:58;7.45;;;4.45;;
76995;SDS011;65929;49.062;10.338;2023-04-07T03:31:58;10.95;;;5.38;;
76995;SDS011;65929;49.062;10.338;2023-04-07T03:33:01;8.70;;;4.70;;
76995;SDS011;65929;49.062;10.338;2023-04-07T03:34:02;9.65;;;4.93;;
76995;SDS011;65929;49.062;10.338;2023-04-07T03:35:12;10.57;;;5.28;;
76995;SDS011;65929;49.062;10.338;2023-04-07T03:36:13;9.80;;;4.70;;
76995;SDS011;65929;49.062;10.338;2023-04-07T03:37:14;8.05;;;4.40;;
76995;SDS011;65929;49.062;10.338;2023-04-07T03:38:15;8.93;;;4.90;;
76995;SDS011;65929;49.062;10.338;2023-04-07T03:39:16;6.68;;;4.30;;
76995;SDS011;65929;49.062;10.338;2023-04-07T03:40:17;9.10;;;4.97;;
76995;SDS011;65929;49.062;10.338;2023-04-07T03:41:18;10.20;;;4.45;;
76995;SDS011;65929;49.062;10.338;2023-04-07T03:42:19;8.57;;;4.45;;
76995;SDS011;65929;49.062;10.338;2023-04-07T03:43:19;7.88;;;4.72;;
76995;SDS011;65929;49.062;10.338;2023-04-07T03:44:21;10.77;;;4.47;;
76995;SDS011;65929;49.062;10.338;2023-04-07T03:45:22;6.95;;;4.45;;
76995;SDS011;65929;49.062;10.338;2023-04-07T03:46:23;8.90;;;5.47;;
76995;SDS011;65929;49.062;10.338;2023-04-07T03:47:26;10.88;;;5.18;;
76995;SDS011;65929;49.062;10.338;2023-04-07T03:48:28;9.13;;;4.97;;
76995;SDS011;65929;49.062;10.338;2023-04-07T03:49:29;9.85;;;4.70;;
76995;SDS011;65929;49.062;10.338;2023-04-07T03:50:30;8.48;;;4.75;;
76995;SDS011;65929;49.062;10.338;2023-04-07T03:51:31;10.23;;;4.63;;
76995;SDS011;65929;49.062;10.338;2023-04-07T03:52:33;8.13;;;4.43;;
76995;SDS011;65929;49.062;10.338;2023-04-07T03:53:34;9.85;;;4.95;;
76995;SDS011;65929;49.062;10.338;2023-04-07T03:54:34;8.48;;;4.40;;
76995;SDS011;65929;49.062;10.338;2023-04-07T03:55:35;8.57;;;4.75;;
76995;SDS011;65929;49.062;10.338;2023-04-07T03:56:37;9.05;;;4.32;;
76995;SDS011;65929;49.062;10.338;2023-04-07T03:57:37;10.90;;;5.88;;
76995;SDS011;65929;49.062;10.338;2023-04-07T03:58:39;7.65;;;4.32;;
76995;SDS011;65929;49.062;10.338;2023-04-07T03:59:41;10.52;;;4.97;;
76995;SDS011;65929;49.062;10.338;2023-04-07T04:00:42;10.77;;;4.70;;
76995;SDS011;65929;49.062;10.338;2023-04-07T04:01:44;8.57;;;4.30;;
76995;SDS011;65929;49.062;10.338;2023-04-07T04:02:45;10.32;;;4.40;;
76995;SDS011;65929;49.062;10.338;2023-04-07T04:03:47;7.90;;;4.63;;
76995;SDS011;65929;49.062;10.338;2023-04-07T04:04:48;7.25;;;4.25;;
76995;SDS011;65929;49.062;10.338;2023-04-07T04:05:50;8.05;;;4.32;;
76995;SDS011;65929;49.062;10.338;2023-04-07T04:06:51;9.02;;;4.40;;
76995;SDS011;65929;49.062;10.338;2023-04-07T04:07:52;11.23;;;6.20;;
76995;SDS011;65929;49.062;10.338;2023-04-07T04:08:53;9.90;;;5.10;;
76995;SDS011;65929;49.062;10.338;2023-04-07T04:09:54;7.90;;;4.28;;
76995;SDS011;65929;49.062;10.338;2023-04-07T04:10:55;8.98;;;4.40;;
76995;SDS011;65929;49.062;10.338;2023-04-07T04:11:56;8.38;;;3.97;;
76995;SDS011;65929;49.062;10.338;2023-04-07T04:12:57;10.77;;;4.95;;
76995;SDS011;65929;49.062;10.338;2023-04-07T04:14:03;9.55;;;4.30;;
76995;SDS011;65929;49.062;10.338;2023-04-07T04:15:06;9.68;;;4.55;;
76995;SDS011;65929;49.062;10.338;2023-04-07T04:16:07;10.15;;;5.13;;
76995;SDS011;65929;49.062;10.338;2023-04-07T04:17:08;9.98;;;4.68;;
76995;SDS011;65929;49.062;10.338;2023-04-07T04:18:10;6.78;;;3.67;;
76995;SDS011;65929;49.062;10.338;2023-04-07T04:19:12;9.65;;;4.53;;
76995;SDS011;65929;49.062;10.338;2023-04-07T04:20:13;8.20;;;4.32;;
76995;SDS011;65929;49.062;10.338;2023-04-07T04:21:14;8.52;;;4.45;;
76995;SDS011;65929;49.062;10.338;2023-04-07T04:22:15;9.60;;;4.68;;
76995;SDS011;65929;49.062;10.338;2023-04-07T04:23:16;10.65;;;4.72;;
76995;SDS011;65929;49.062;10.338;2023-04-07T04:24:17;11.40;;;4.95;;
76995;SDS011;65929;49.062;10.338;2023-04-07T04:25:18;8.90;;;4.47;;
76995;SDS011;65929;49.062;10.338;2023-04-07T04:26:19;10.43;;;5.03;;
76995;SDS011;65929;49.062;10.338;2023-04-07T04:27:24;8.65;;;4.85;;
76995;SDS011;65929;49.062;10.338;2023-04-07T04:28:25;10.85;;;5.47;;
76995;SDS011;65929;49.062;10.338;2023-04-07T04:29:26;8.65;;;5.05;;
76995;SDS011;65929;49.062;10.338;2023-04-07T04:30:27;11.77;;;5.22;;
76995;SDS011;65929;49.062;10.338;2023-04-07T04:31:28;10.63;;;5.43;;
76995;SDS011;65929;49.062;10.338;2023-04-07T04:32:29;9.43;;;4.75;;
76995;SDS011;65929;49.062;10.338;2023-04-07T04:33:30;10.73;;;4.40;;
76995;SDS011;65929;49.062;10.338;2023-04-07T04:34:32;11.02;;;4.30;;
76995;SDS011;65929;49.062;10.338;2023-04-07T04:35:33;10.57;;;5.45;;
76995;SDS011;65929;49.062;10.338;2023-04-07T04:36:34;8.63;;;4.75;;
76995;SDS011;65929;49.062;10.338;2023-04-07T04:37:35;12.32;;;4.90;;
76995;SDS011;65929;49.062;10.338;2023-04-07T04:38:36;9.27;;;4.38;;
76995;SDS011;65929;49.062;10.338;2023-04-07T04:39:37;9.55;;;4.43;;
76995;SDS011;65929;49.062;10.338;2023-04-07T04:40:38;10.43;;;5.38;;
76995;SDS011;65929;49.062;10.338;2023-04-07T04:41:42;10.32;;;5.07;;
76995;SDS011;65929;49.062;10.338;2023-04-07T04:42:44;8.38;;;4.47;;
76995;SDS011;65929;49.062;10.338;2023-04-07T04:43:45;8.15;;;4.03;;
76995;SDS011;65929;49.062;10.338;2023-04-07T04:44:46;9.50;;;4.95;;
76995;SDS011;65929;49.062;10.338;2023-04-07T04:45:47;9.10;;;4.43;;
76995;SDS011;65929;49.062;10.338;2023-04-07T04:46:48;11.20;;;5.28;;
76995;SDS011;65929;49.062;10.338;2023-04-07T04:47:49;10.55;;;5.18;;
76995;SDS011;65929;49.062;10.338;2023-04-07T04:48:49;9.57;;;4.90;;
76995;SDS011;65929;49.062;10.338;2023-04-07T04:49:53;9.98;;;5.22;;
76995;SDS011;65929;49.062;10.338;2023-04-07T04:50:54;11.05;;;5.00;;
76995;SDS011;65929;49.062;10.338;2023-04-07T04:51:55;9.07;;;5.60;;
76995;SDS011;65929;49.062;10.338;2023-04-07T04:52:56;9.48;;;4.32;;
76995;SDS011;65929;49.062;10.338;2023-04-07T04:53:57;8.52;;;4.47;;
76995;SDS011;65929;49.062;10.338;2023-04-07T04:54:58;9.50;;;5.20;;
76995;SDS011;65929;49.062;10.338;2023-04-07T04:55:59;12.65;;;4.13;;
76995;SDS011;65929;49.062;10.338;2023-04-07T04:57:00;8.98;;;4.75;;
76995;SDS011;65929;49.062;10.338;2023-04-07T04:58:01;13.32;;;5.40;;
76995;SDS011;65929;49.062;10.338;2023-04-07T04:59:02;11.95;;;5.20;;
76995;SDS011;65929;49.062;10.338;2023-04-07T05:00:04;11.10;;;5.50;;
76995;SDS011;65929;49.062;10.338;2023-04-07T05:01:06;9.90;;;4.88;;
76995;SDS011;65929;49.062;10.338;2023-04-07T05:02:07;9.35;;;4.35;;
76995;SDS011;65929;49.062;10.338;2023-04-07T05:03:08;10.55;;;5.72;;
76995;SDS011;65929;49.062;10.338;2023-04-07T05:04:09;10.65;;;5.13;;
76995;SDS011;65929;49.062;10.338;2023-04-07T05:05:12;12.80;;;5.60;;
76995;SDS011;65929;49.062;10.338;2023-04-07T05:06:13;9.98;;;4.93;;
76995;SDS011;65929;49.062;10.338;2023-04-07T05:07:14;11.30;;;5.32;;
76995;SDS011;65929;49.062;10.338;2023-04-07T05:08:15;13.73;;;5.35;;
76995;SDS011;65929;49.062;10.338;2023-04-07T05:09:16;10.25;;;5.15;;
76995;SDS011;65929;49.062;10.338;2023-04-07T05:10:17;10.48;;;5.07;;
76995;SDS011;65929;49.062;10.338;2023-04-07T05:11:18;10.95;;;5.03;;
76995;SDS011;65929;49.062;10.338;2023-04-07T05:12:20;12.13;;;5.68;;
76995;SDS011;65929;49.062;10.338;2023-04-07T05:13:21;10.70;;;5.03;;
76995;SDS011;65929;49.062;10.338;2023-04-07T05:14:22;11.20;;;5.70;;
76995;SDS011;65929;49.062;10.338;2023-04-07T05:15:23;12.57;;;5.50;;
76995;SDS011;65929;49.062;10.338;2023-04-07T05:16:25;13.60;;;6.28;;
76995;SDS011;65929;49.062;10.338;2023-04-07T05:17:25;9.85;;;4.80;;
76995;SDS011;65929;49.062;10.338;2023-04-07T05:18:26;13.80;;;5.78;;
76995;SDS011;65929;49.062;10.338;2023-04-07T05:19:27;11.18;;;5.55;;
76995;SDS011;65929;49.062;10.338;2023-04-07T05:20:30;9.75;;;4.97;;
76995;SDS011;65929;49.062;10.338;2023-04-07T05:21:31;9.77;;;5.28;;
76995;SDS011;65929;49.062;10.338;2023-04-07T05:22:32;10.75;;;5.03;;
76995;SDS011;65929;49.062;10.338;2023-04-07T05:23:33;11.73;;;5.30;;
76995;SDS011;65929;49.062;10.338;2023-04-07T05:24:35;11.43;;;5.70;;
76995;SDS011;65929;49.062;10.338;2023-04-07T05:25:36;12.77;;;5.40;;
76995;SDS011;65929;49.062;10.338;2023-04-07T05:26:37;10.88;;;6.03;;
76995;SDS011;65929;49.062;10.338;2023-04-07T05:27:37;12.45;;;5.57;;
76995;SDS011;65929;49.062;10.338;2023-04-07T05:28:38;12.48;;;6.03;;
76995;SDS011;65929;49.062;10.338;2023-04-07T05:29:39;14.07;;;7.07;;
76995;SDS011;65929;49.062;10.338;2023-04-07T05:30:40;13.70;;;6.75;;
76995;SDS011;65929;49.062;10.338;2023-04-07T05:31:41;13.32;;;6.53;;
76995;SDS011;65929;49.062;10.338;2023-04-07T05:32:42;12.80;;;5.28;;
76995;SDS011;65929;49.062;10.338;2023-04-07T05:33:43;11.65;;;6.07;;
76995;SDS011;65929;49.062;10.338;2023-04-07T05:34:44;15.07;;;5.97;;
76995;SDS011;65929;49.062;10.338;2023-04-07T05:35:47;13.32;;;6.78;;
76995;SDS011;65929;49.062;10.338;2023-04-07T05:37:53;11.15;;;6.28;;
76995;SDS011;65929;49.062;10.338;2023-04-07T05:38:54;12.48;;;5.95;;
76995;SDS011;65929;49.062;10.338;2023-04-07T05:39:55;12.68;;;6.15;;
76995;SDS011;65929;49.062;10.338;2023-04-07T05:40:56;12.07;;;6.15;;
76995;SDS011;65929;49.062;10.338;2023-04-07T05:41:57;12.00;;;5.68;;
76995;SDS011;65929;49.062;10.338;2023-04-07T05:42:58;13.45;;;6.15;;
76995;SDS011;65929;49.062;10.338;2023-04-07T05:43:59;11.38;;;6.03;;
76995;SDS011;65929;49.062;10.338;2023-04-07T05:45:00;13.50;;;5.97;;
76995;SDS011;65929;49.062;10.338;2023-04-07T05:46:01;10.82;;;5.03;;
76995;SDS011;65929;49.062;10.338;2023-04-07T05:47:02;12.75;;;6.15;;
76995;SDS011;65929;49.062;10.338;2023-04-07T05:48:07;12.90;;;5.85;;
76995;SDS011;65929;49.062;10.338;2023-04-07T05:49:08;14.48;;;6.93;;
76995;SDS011;65929;49.062;10.338;2023-04-07T05:50:09;13.98;;;6.38;;
76995;SDS011;65929;49.062;10.338;2023-04-07T05:51:14;12.10;;;6.18;;
76995;SDS011;65929;49.062;10.338;2023-04-07T05:52:15;13.75;;;6.15;;
76995;SDS011;65929;49.062;10.338;2023-04-07T05:53:16;12.63;;;5.85;;
76995;SDS011;65929;49.062;10.338;2023-04-07T05:54:17;12.40;;;6.15;;
76995;SDS011;65929;49.062;10.338;2023-04-07T05:55:18;12.48;;;5.72;;
76995;SDS011;65929;49.062;10.338;2023-04-07T05:56:19;11.00;;;5.93;;
76995;SDS011;65929;49.062;10.338;2023-04-07T05:57:20;10.68;;;5.53;;
76995;SDS011;65929;49.062;10.338;2023-04-07T05:58:22;13.30;;;5.95;;
76995;SDS011;65929;49.062;10.338;2023-04-07T05:59:23;11.48;;;5.75;;
76995;SDS011;65929;49.062;10.338;2023-04-07T06:00:24;14.27;;;6.72;;
76995;SDS011;65929;49.062;10.338;2023-04-07T06:01:25;12.43;;;5.80;;
76995;SDS011;65929;49.062;10.338;2023-04-07T06:02:26;14.85;;;6.85;;
76995;SDS011;65929;49.062;10.338;2023-04-07T06:03:27;11.50;;;6.30;;
76995;SDS011;65929;49.062;10.338;2023-04-07T06:04:28;15.52;;;6.63;;
76995;SDS011;65929;49.062;10.338;2023-04-07T06:05:29;14.23;;;5.85;;
76995;SDS011;65929;49.062;10.338;2023-04-07T06:06:31;13.23;;;6.07;;
76995;SDS011;65929;49.062;10.338;2023-04-07T06:07:32;12.20;;;7.45;;
76995;SDS011;65929;49.062;10.338;2023-04-07T06:08:33;10.30;;;5.38;;